sensor_id;sensor_type;location;lat;lon;timestamp;pressure;altitude;pressure_sealevel;temperature;humidity
65659;BME280;60181;53.258;6.932;2023-07-02T00:03:24;100570.11;;;20.97;58.52
65659;BME280;60181;53.258;6.932;2023-07-02T00:07:28;100571.22;;;21.00;58.58
65659;BME280;60181;53.258;6.932;2023-07-02T00:11:32;100571.29;;;21.00;58.23
65659;BME280;60181;53.258;6.932;2023-07-02T00:15:36;100571.33;;;20.98;58.26
65659;BME280;60181;53.258;6.932;2023-07-02T00:19:40;100571.98;;;20.98;58.16
65659;BME280;60181;53.258;6.932;2023-07-02T00:23:44;100571.94;;;20.97;57.86
65659;BME280;60181;53.258;6.932;2023-07-02T00:27:48;100572.96;;;20.96;57.86
65659;BME280;60181;53.258;6.932;2023-07-02T00:31:52;100572.91;;;20.93;57.81
65659;BME280;60181;53.258;6.932;2023-07-02T00:35:56;100573.14;;;20.91;57.63
65659;BME280;60181;53.258;6.932;2023-07-02T00:40:00;100573.43;;;20.88;57.50
65659;BME280;60181;53.258;6.932;2023-07-02T00:44:04;100572.38;;;20.87;57.58
65659;BME280;60181;53.258;6.932;2023-07-02T00:48:08;100572.05;;;20.86;57.55
65659;BME280;60181;53.258;6.932;2023-07-02T00:52:12;100572.30;;;20.85;57.42
65659;BME280;60181;53.258;6.932;2023-07-02T00:56:16;100572.60;;;20.84;57.30
65659;BME280;60181;53.258;6.932;2023-07-02T01:00:20;100572.17;;;20.83;57.27
65659;BME280;60181;53.258;6.932;2023-07-02T01:04:24;100571.45;;;20.81;57.17
65659;BME280;60181;53.258;6.932;2023-07-02T01:08:28;100570.25;;;20.80;57.07
65659;BME280;60181;53.258;6.932;2023-07-02T01:12:32;100569.34;;;20.78;57.09
65659;BME280;60181;53.258;6.932;2023-07-02T01:16:36;100568.38;;;20.77;56.98
65659;BME280;60181;53.258;6.932;2023-07-02T01:20:40;100567.31;;;20.75;56.92
65659;BME280;60181;53.258;6.932;2023-07-02T01:24:44;100565.41;;;20.74;56.88
65659;BME280;60181;53.258;6.932;2023-07-02T01:28:48;100563.75;;;20.74;56.84
65659;BME280;60181;53.258;6.932;2023-07-02T01:32:52;100561.41;;;20.74;56.84
65659;BME280;60181;53.258;6.932;2023-07-02T01:36:56;100560.60;;;20.73;56.83
65659;BME280;60181;53.258;6.932;2023-07-02T01:41:00;100559.44;;;20.72;56.90
65659;BME280;60181;53.258;6.932;2023-07-02T01:45:04;100557.23;;;20.71;56.79
65659;BME280;60181;53.258;6.932;2023-07-02T01:49:08;100556.22;;;20.70;56.83
65659;BME280;60181;53.258;6.932;2023-07-02T01:53:12;100555.41;;;20.69;56.87
65659;BME280;60181;53.258;6.932;2023-07-02T01:57:16;100555.76;;;20.69;56.84
65659;BME280;60181;53.258;6.932;2023-07-02T02:01:20;100555.97;;;20.67;56.86
65659;BME280;60181;53.258;6.932;2023-07-02T02:05:24;100556.71;;;20.66;56.84
65659;BME280;60181;53.258;6.932;2023-07-02T02:09:28;100558.48;;;20.65;56.89
65659;BME280;60181;53.258;6.932;2023-07-02T02:13:32;100560.74;;;20.64;56.95
65659;BME280;60181;53.258;6.932;2023-07-02T02:17:36;100562.76;;;20.63;56.82
65659;BME280;60181;53.258;6.932;2023-07-02T02:21:40;100564.46;;;20.62;56.85
65659;BME280;60181;53.258;6.932;2023-07-02T02:25:44;100566.97;;;20.61;56.75
65659;BME280;60181;53.258;6.932;2023-07-02T02:29:48;100568.64;;;20.59;56.71
65659;BME280;60181;53.258;6.932;2023-07-02T02:33:52;100570.18;;;20.58;56.78
65659;BME280;60181;53.258;6.932;2023-07-02T02:37:56;100571.88;;;20.56;57.37
65659;BME280;60181;53.258;6.932;2023-07-02T02:42:00;100572.56;;;20.55;56.77
65659;BME280;60181;53.258;6.932;2023-07-02T02:46:04;100572.60;;;20.53;56.80
65659;BME280;60181;53.258;6.932;2023-07-02T02:50:08;100573.69;;;20.51;56.71
65659;BME280;60181;53.258;6.932;2023-07-02T02:54:12;100574.49;;;20.49;56.73
65659;BME280;60181;53.258;6.932;2023-07-02T02:58:16;100576.06;;;20.48;56.72
65659;BME280;60181;53.258;6.932;2023-07-02T03:02:20;100577.17;;;20.47;56.69
65659;BME280;60181;53.258;6.932;2023-07-02T03:06:24;100577.45;;;20.45;56.65
65659;BME280;60181;53.258;6.932;2023-07-02T03:10:28;100577.87;;;20.44;56.67
65659;BME280;60181;53.258;6.932;2023-07-02T03:14:32;100577.25;;;20.42;56.56
65659;BME280;60181;53.258;6.932;2023-07-02T03:18:36;100576.67;;;20.41;56.57
65659;BME280;60181;53.258;6.932;2023-07-02T03:22:40;100576.45;;;20.41;56.56
65659;BME280;60181;53.258;6.932;2023-07-02T03:26:44;100577.78;;;20.40;56.48
65659;BME280;60181;53.258;6.932;2023-07-02T03:30:48;100578.47;;;20.40;56.43
65659;BME280;60181;53.258;6.932;2023-07-02T03:34:52;100579.80;;;20.40;56.57
65659;BME280;60181;53.258;6.932;2023-07-02T03:38:56;100581.96;;;20.40;56.74
65659;BME280;60181;53.258;6.932;2023-07-02T03:43:00;100584.28;;;20.39;56.48
65659;BME280;60181;53.258;6.932;2023-07-02T03:47:04;100585.46;;;20.40;56.34
65659;BME280;60181;53.258;6.932;2023-07-02T03:51:08;100586.17;;;20.41;56.27
65659;BME280;60181;53.258;6.932;2023-07-02T03:55:12;100587.76;;;20.42;56.28
65659;BME280;60181;53.258;6.932;2023-07-02T03:59:16;100590.28;;;20.43;56.28
65659;BME280;60181;53.258;6.932;2023-07-02T04:03:19;100592.99;;;20.47;55.95
65659;BME280;60181;53.258;6.932;2023-07-02T04:07:24;100595.81;;;20.53;55.61
65659;BME280;60181;53.258;6.932;2023-07-02T04:11:27;100597.93;;;20.59;55.54
65659;BME280;60181;53.258;6.932;2023-07-02T04:15:32;100600.34;;;20.65;55.94
65659;BME280;60181;53.258;6.932;2023-07-02T04:19:35;100602.47;;;20.71;55.41
65659;BME280;60181;53.258;6.932;2023-07-02T04:23:39;100605.16;;;20.75;55.24
65659;BME280;60181;53.258;6.932;2023-07-02T04:27:44;100606.38;;;20.78;55.04
65659;BME280;60181;53.258;6.932;2023-07-02T04:31:47;100608.17;;;20.77;55.33
65659;BME280;60181;53.258;6.932;2023-07-02T04:35:51;100610.60;;;20.75;55.49
65659;BME280;60181;53.258;6.932;2023-07-02T04:39:55;100612.54;;;20.72;55.61
65659;BME280;60181;53.258;6.932;2023-07-02T04:43:59;100615.09;;;20.70;55.70
65659;BME280;60181;53.258;6.932;2023-07-02T04:48:04;100617.44;;;20.67;55.81
65659;BME280;60181;53.258;6.932;2023-07-02T04:52:07;100620.48;;;20.64;55.89
65659;BME280;60181;53.258;6.932;2023-07-02T04:56:11;100623.85;;;20.62;56.04
65659;BME280;60181;53.258;6.932;2023-07-02T05:00:16;100626.78;;;20.61;56.29
65659;BME280;60181;53.258;6.932;2023-07-02T05:04:19;100629.47;;;20.64;55.97
65659;BME280;60181;53.258;6.932;2023-07-02T05:08:23;100631.14;;;20.70;56.48
65659;BME280;60181;53.258;6.932;2023-07-02T05:12:27;100632.06;;;20.77;56.62
65659;BME280;60181;53.258;6.932;2023-07-02T05:16:31;100632.90;;;20.81;56.79
65659;BME280;60181;53.258;6.932;2023-07-02T05:20:35;100633.86;;;20.82;56.95
65659;BME280;60181;53.258;6.932;2023-07-02T05:24:39;100635.19;;;20.82;56.99
65659;BME280;60181;53.258;6.932;2023-07-02T05:28:43;100636.72;;;20.82;57.12
65659;BME280;60181;53.258;6.932;2023-07-02T05:32:47;100637.40;;;20.81;56.83
65659;BME280;60181;53.258;6.932;2023-07-02T05:36:51;100637.58;;;20.80;56.87
65659;BME280;60181;53.258;6.932;2023-07-02T05:40:55;100637.27;;;20.79;56.52
65659;BME280;60181;53.258;6.932;2023-07-02T05:44:59;100637.75;;;20.78;56.21
65659;BME280;60181;53.258;6.932;2023-07-02T05:49:03;100640.52;;;20.78;56.65
65659;BME280;60181;53.258;6.932;2023-07-02T05:53:07;100644.19;;;20.77;55.32
65659;BME280;60181;53.258;6.932;2023-07-02T05:57:11;100647.63;;;20.76;55.32
65659;BME280;60181;53.258;6.932;2023-07-02T06:01:16;100651.98;;;20.75;55.29
65659;BME280;60181;53.258;6.932;2023-07-02T06:05:19;100655.59;;;20.75;55.10
65659;BME280;60181;53.258;6.932;2023-07-02T06:09:23;100659.88;;;20.74;54.66
65659;BME280;60181;53.258;6.932;2023-07-02T06:13:27;100663.87;;;20.72;54.11
65659;BME280;60181;53.258;6.932;2023-07-02T06:17:31;100667.31;;;20.71;54.13
65659;BME280;60181;53.258;6.932;2023-07-02T06:21:36;100671.25;;;20.70;53.84
65659;BME280;60181;53.258;6.932;2023-07-02T06:25:39;100673.75;;;20.68;54.06
65659;BME280;60181;53.258;6.932;2023-07-02T06:29:43;100675.37;;;20.67;53.95
65659;BME280;60181;53.258;6.932;2023-07-02T06:33:47;100675.95;;;20.67;54.06
65659;BME280;60181;53.258;6.932;2023-07-02T06:37:51;100678.02;;;20.67;54.32
65659;BME280;60181;53.258;6.932;2023-07-02T06:41:55;100681.36;;;20.67;54.09
65659;BME280;60181;53.258;6.932;2023-07-02T06:45:59;100683.84;;;20.73;53.23
65659;BME280;60181;53.258;6.932;2023-07-02T06:50:04;100687.41;;;20.86;52.97
65659;BME280;60181;53.258;6.932;2023-07-02T06:54:07;100691.96;;;21.03;52.41
65659;BME280;60181;53.258;6.932;2023-07-02T06:58:11;100695.84;;;21.25;51.67
65659;BME280;60181;53.258;6.932;2023-07-02T07:02:15;100698.78;;;21.50;51.27
65659;BME280;60181;53.258;6.932;2023-07-02T07:06:19;100703.67;;;21.66;52.25
65659;BME280;60181;53.258;6.932;2023-07-02T07:10:23;100708.15;;;21.72;53.08
65659;BME280;60181;53.258;6.932;2023-07-02T07:14:27;100713.99;;;21.72;53.55
65659;BME280;60181;53.258;6.932;2023-07-02T07:18:31;100719.59;;;21.80;52.04
65659;BME280;60181;53.258;6.932;2023-07-02T07:22:35;100724.16;;;21.96;51.81
65659;BME280;60181;53.258;6.932;2023-07-02T07:26:39;100728.65;;;22.14;51.62
65659;BME280;60181;53.258;6.932;2023-07-02T07:30:43;100733.54;;;22.28;51.96
65659;BME280;60181;53.258;6.932;2023-07-02T07:34:47;100736.86;;;22.37;52.12
65659;BME280;60181;53.258;6.932;2023-07-02T07:38:51;100741.27;;;22.42;52.35
65659;BME280;60181;53.258;6.932;2023-07-02T07:42:55;100743.80;;;22.53;51.79
65659;BME280;60181;53.258;6.932;2023-07-02T07:46:59;100746.11;;;22.65;51.61
65659;BME280;60181;53.258;6.932;2023-07-02T07:51:03;100748.78;;;22.76;51.99
65659;BME280;60181;53.258;6.932;2023-07-02T07:55:07;100750.61;;;22.86;51.94
65659;BME280;60181;53.258;6.932;2023-07-02T07:59:11;100752.52;;;22.97;51.96
65659;BME280;60181;53.258;6.932;2023-07-02T08:03:15;100755.42;;;23.05;52.19
65659;BME280;60181;53.258;6.932;2023-07-02T08:07:19;100756.97;;;23.10;52.60
65659;BME280;60181;53.258;6.932;2023-07-02T08:11:23;100757.93;;;23.09;53.31
65659;BME280;60181;53.258;6.932;2023-07-02T08:15:27;100760.88;;;23.07;52.98
65659;BME280;60181;53.258;6.932;2023-07-02T08:19:31;100761.58;;;23.07;53.22
65659;BME280;60181;53.258;6.932;2023-07-02T08:23:35;100763.05;;;22.97;53.93
65659;BME280;60181;53.258;6.932;2023-07-02T08:27:39;100763.75;;;22.85;54.31
65659;BME280;60181;53.258;6.932;2023-07-02T08:31:43;100764.73;;;22.75;54.36
65659;BME280;60181;53.258;6.932;2023-07-02T08:35:47;100767.00;;;22.64;54.77
65659;BME280;60181;53.258;6.932;2023-07-02T08:39:51;100770.95;;;22.51;54.88
65659;BME280;60181;53.258;6.932;2023-07-02T08:43:55;100775.53;;;22.39;55.19
65659;BME280;60181;53.258;6.932;2023-07-02T08:47:59;100779.94;;;22.27;55.22
65659;BME280;60181;53.258;6.932;2023-07-02T08:52:03;100787.09;;;22.16;55.42
65659;BME280;60181;53.258;6.932;2023-07-02T08:56:07;100794.79;;;22.06;55.48
65659;BME280;60181;53.258;6.932;2023-07-02T09:00:11;100801.85;;;21.99;55.20
65659;BME280;60181;53.258;6.932;2023-07-02T09:04:21;100806.69;;;21.94;55.17
65659;BME280;60181;53.258;6.932;2023-07-02T09:08:22;100811.16;;;21.92;54.95
65659;BME280;60181;53.258;6.932;2023-07-02T09:12:26;100814.65;;;21.92;54.82
65659;BME280;60181;53.258;6.932;2023-07-02T09:16:30;100816.80;;;21.93;54.76
65659;BME280;60181;53.258;6.932;2023-07-02T09:20:34;100820.60;;;21.95;54.78
65659;BME280;60181;53.258;6.932;2023-07-02T09:24:35;100824.88;;;22.06;54.04
65659;BME280;60181;53.258;6.932;2023-07-02T09:28:39;100827.72;;;22.19;53.84
65659;BME280;60181;53.258;6.932;2023-07-02T09:32:43;100828.76;;;22.31;53.73
65659;BME280;60181;53.258;6.932;2023-07-02T09:36:47;100828.75;;;22.39;54.03
65659;BME280;60181;53.258;6.932;2023-07-02T09:40:51;100829.50;;;22.46;54.09
65659;BME280;60181;53.258;6.932;2023-07-02T09:44:55;100829.13;;;22.50;54.65
65659;BME280;60181;53.258;6.932;2023-07-02T09:48:59;100828.12;;;22.55;54.68
65659;BME280;60181;53.258;6.932;2023-07-02T09:53:03;100825.80;;;22.58;54.69
65659;BME280;60181;53.258;6.932;2023-07-02T09:57:07;100825.28;;;22.62;54.73
65659;BME280;60181;53.258;6.932;2023-07-02T10:01:11;100823.65;;;22.64;54.94
65659;BME280;60181;53.258;6.932;2023-07-02T10:05:30;100825.89;;;22.66;55.11
65659;BME280;60181;53.258;6.932;2023-07-02T10:09:20;100829.24;;;22.66;55.53
65659;BME280;60181;53.258;6.932;2023-07-02T10:13:26;100831.16;;;22.64;55.77
65659;BME280;60181;53.258;6.932;2023-07-02T10:17:30;100832.79;;;22.63;55.93
65659;BME280;60181;53.258;6.932;2023-07-02T10:21:31;100835.68;;;22.61;56.04
65659;BME280;60181;53.258;6.932;2023-07-02T10:25:35;100836.63;;;22.59;56.05
65659;BME280;60181;53.258;6.932;2023-07-02T10:29:44;100837.10;;;22.57;56.11
65659;BME280;60181;53.258;6.932;2023-07-02T10:33:43;100839.81;;;22.55;56.25
65659;BME280;60181;53.258;6.932;2023-07-02T10:37:47;100842.94;;;22.52;56.32
65659;BME280;60181;53.258;6.932;2023-07-02T10:41:51;100845.90;;;22.51;56.19
65659;BME280;60181;53.258;6.932;2023-07-02T10:45:55;100848.77;;;22.49;56.40
65659;BME280;60181;53.258;6.932;2023-07-02T10:49:59;100852.22;;;22.47;56.32
65659;BME280;60181;53.258;6.932;2023-07-02T10:54:03;100855.16;;;22.47;56.27
65659;BME280;60181;53.258;6.932;2023-07-02T10:58:07;100858.34;;;22.46;56.26
65659;BME280;60181;53.258;6.932;2023-07-02T11:02:11;100860.74;;;22.45;56.36
65659;BME280;60181;53.258;6.932;2023-07-02T11:06:15;100864.75;;;22.43;56.42
65659;BME280;60181;53.258;6.932;2023-07-02T11:10:19;100868.94;;;22.42;56.38
65659;BME280;60181;53.258;6.932;2023-07-02T11:14:26;100872.19;;;22.41;56.39
65659;BME280;60181;53.258;6.932;2023-07-02T11:18:30;100874.70;;;22.42;56.27
65659;BME280;60181;53.258;6.932;2023-07-02T11:22:34;100878.10;;;22.41;56.45
65659;BME280;60181;53.258;6.932;2023-07-02T11:26:36;100881.65;;;22.39;56.56
65659;BME280;60181;53.258;6.932;2023-07-02T11:30:45;100885.02;;;22.37;56.65
65659;BME280;60181;53.258;6.932;2023-07-02T11:34:52;100888.23;;;22.36;56.62
65659;BME280;60181;53.258;6.932;2023-07-02T11:38:48;100890.73;;;22.36;56.50
65659;BME280;60181;53.258;6.932;2023-07-02T11:42:51;100892.81;;;22.35;56.49
65659;BME280;60181;53.258;6.932;2023-07-02T11:46:55;100894.81;;;22.36;56.43
65659;BME280;60181;53.258;6.932;2023-07-02T11:50:59;100894.98;;;22.36;56.49
65659;BME280;60181;53.258;6.932;2023-07-02T11:55:03;100893.22;;;22.36;56.45
65659;BME280;60181;53.258;6.932;2023-07-02T11:59:07;100892.97;;;22.35;56.37
65659;BME280;60181;53.258;6.932;2023-07-02T12:03:11;100895.35;;;22.34;56.48
65659;BME280;60181;53.258;6.932;2023-07-02T12:07:15;100899.95;;;22.33;56.44
65659;BME280;60181;53.258;6.932;2023-07-02T12:11:19;100903.74;;;22.32;56.39
65659;BME280;60181;53.258;6.932;2023-07-02T12:15:23;100906.14;;;22.32;56.40
65659;BME280;60181;53.258;6.932;2023-07-02T12:19:27;100907.86;;;22.31;56.49
65659;BME280;60181;53.258;6.932;2023-07-02T12:23:31;100910.21;;;22.30;56.47
65659;BME280;60181;53.258;6.932;2023-07-02T12:27:35;100912.63;;;22.29;56.45
65659;BME280;60181;53.258;6.932;2023-07-02T12:31:39;100917.11;;;22.30;56.35
65659;BME280;60181;53.258;6.932;2023-07-02T12:35:43;100923.13;;;22.30;56.41
65659;BME280;60181;53.258;6.932;2023-07-02T12:39:47;100927.80;;;22.30;56.36
65659;BME280;60181;53.258;6.932;2023-07-02T12:43:51;100933.83;;;22.29;56.50
65659;BME280;60181;53.258;6.932;2023-07-02T12:47:55;100939.25;;;22.28;56.48
65659;BME280;60181;53.258;6.932;2023-07-02T12:51:59;100943.92;;;22.28;56.41
65659;BME280;60181;53.258;6.932;2023-07-02T12:56:03;100948.38;;;22.28;56.56
65659;BME280;60181;53.258;6.932;2023-07-02T13:00:07;100952.88;;;22.27;56.51
65659;BME280;60181;53.258;6.932;2023-07-02T13:04:11;100955.74;;;22.27;56.59
65659;BME280;60181;53.258;6.932;2023-07-02T13:08:15;100959.69;;;22.29;56.70
65659;BME280;60181;53.258;6.932;2023-07-02T13:12:19;100965.07;;;22.32;56.68
65659;BME280;60181;53.258;6.932;2023-07-02T13:16:23;100970.04;;;22.34;56.82
65659;BME280;60181;53.258;6.932;2023-07-02T13:20:27;100973.99;;;22.36;56.81
65659;BME280;60181;53.258;6.932;2023-07-02T13:24:34;100976.89;;;22.38;56.99
65659;BME280;60181;53.258;6.932;2023-07-02T13:28:35;100979.57;;;22.38;57.14
65659;BME280;60181;53.258;6.932;2023-07-02T13:32:39;100981.98;;;22.39;57.16
65659;BME280;60181;53.258;6.932;2023-07-02T13:36:43;100985.03;;;22.40;57.13
65659;BME280;60181;53.258;6.932;2023-07-02T13:40:47;100987.54;;;22.42;56.98
65659;BME280;60181;53.258;6.932;2023-07-02T13:44:51;100989.83;;;22.43;57.00
65659;BME280;60181;53.258;6.932;2023-07-02T13:48:55;100994.53;;;22.43;57.04
65659;BME280;60181;53.258;6.932;2023-07-02T13:52:59;101000.45;;;22.42;57.06
65659;BME280;60181;53.258;6.932;2023-07-02T13:57:03;101004.05;;;22.41;56.94
65659;BME280;60181;53.258;6.932;2023-07-02T14:01:07;101007.97;;;22.40;56.96
65659;BME280;60181;53.258;6.932;2023-07-02T14:05:11;101012.26;;;22.39;57.04
65659;BME280;60181;53.258;6.932;2023-07-02T14:09:15;101016.03;;;22.37;57.12
65659;BME280;60181;53.258;6.932;2023-07-02T14:13:19;101018.14;;;22.35;57.07
65659;BME280;60181;53.258;6.932;2023-07-02T14:17:23;101020.42;;;22.34;57.05
65659;BME280;60181;53.258;6.932;2023-07-02T14:21:27;101023.63;;;22.33;57.08
65659;BME280;60181;53.258;6.932;2023-07-02T14:25:31;101026.17;;;22.31;57.11
65659;BME280;60181;53.258;6.932;2023-07-02T14:29:35;101027.09;;;22.29;57.10
65659;BME280;60181;53.258;6.932;2023-07-02T14:33:39;101028.38;;;22.27;56.97
65659;BME280;60181;53.258;6.932;2023-07-02T14:37:43;101030.73;;;22.26;56.91
65659;BME280;60181;53.258;6.932;2023-07-02T14:41:47;101033.34;;;22.26;56.86
65659;BME280;60181;53.258;6.932;2023-07-02T14:45:51;101036.87;;;22.25;56.90
65659;BME280;60181;53.258;6.932;2023-07-02T14:49:55;101040.30;;;22.24;56.84
65659;BME280;60181;53.258;6.932;2023-07-02T14:53:59;101045.32;;;22.23;56.73
65659;BME280;60181;53.258;6.932;2023-07-02T14:58:03;101049.41;;;22.23;56.71
65659;BME280;60181;53.258;6.932;2023-07-02T15:02:07;101054.85;;;22.22;56.71
65659;BME280;60181;53.258;6.932;2023-07-02T15:06:12;101056.78;;;22.20;56.79
65659;BME280;60181;53.258;6.932;2023-07-02T15:10:15;101057.06;;;22.19;56.80
65659;BME280;60181;53.258;6.932;2023-07-02T15:14:19;101055.74;;;22.18;56.74
65659;BME280;60181;53.258;6.932;2023-07-02T15:18:23;101053.91;;;22.18;56.57
65659;BME280;60181;53.258;6.932;2023-07-02T15:22:27;101052.66;;;22.18;56.59
65659;BME280;60181;53.258;6.932;2023-07-02T15:26:31;101050.90;;;22.17;56.60
65659;BME280;60181;53.258;6.932;2023-07-02T15:30:38;101049.27;;;22.17;56.59
65659;BME280;60181;53.258;6.932;2023-07-02T15:34:39;101046.92;;;22.16;56.55
65659;BME280;60181;53.258;6.932;2023-07-02T15:38:43;101043.43;;;22.17;56.33
65659;BME280;60181;53.258;6.932;2023-07-02T15:42:47;101041.74;;;22.17;56.34
65659;BME280;60181;53.258;6.932;2023-07-02T15:46:51;101040.05;;;22.18;56.29
65659;BME280;60181;53.258;6.932;2023-07-02T15:50:55;101040.15;;;22.18;56.42
65659;BME280;60181;53.258;6.932;2023-07-02T15:54:59;101040.47;;;22.17;56.47
65659;BME280;60181;53.258;6.932;2023-07-02T15:59:03;101039.76;;;22.17;56.48
65659;BME280;60181;53.258;6.932;2023-07-02T16:03:07;101040.99;;;22.16;56.48
65659;BME280;60181;53.258;6.932;2023-07-02T16:07:11;101043.44;;;22.16;56.54
65659;BME280;60181;53.258;6.932;2023-07-02T16:11:15;101048.46;;;22.15;56.55
65659;BME280;60181;53.258;6.932;2023-07-02T16:15:19;101052.40;;;22.13;56.61
65659;BME280;60181;53.258;6.932;2023-07-02T16:19:23;101055.41;;;22.12;56.70
65659;BME280;60181;53.258;6.932;2023-07-02T16:23:27;101057.78;;;22.10;56.71
65659;BME280;60181;53.258;6.932;2023-07-02T16:27:32;101060.31;;;22.08;56.83
65659;BME280;60181;53.258;6.932;2023-07-02T16:31:35;101063.28;;;22.06;56.68
65659;BME280;60181;53.258;6.932;2023-07-02T16:35:39;101064.54;;;22.04;56.79
65659;BME280;60181;53.258;6.932;2023-07-02T16:39:42;101065.91;;;22.02;56.74
65659;BME280;60181;53.258;6.932;2023-07-02T16:43:46;101065.92;;;22.01;56.75
65659;BME280;60181;53.258;6.932;2023-07-02T16:47:50;101065.53;;;22.00;56.84
65659;BME280;60181;53.258;6.932;2023-07-02T16:51:55;101064.47;;;21.99;56.69
65659;BME280;60181;53.258;6.932;2023-07-02T16:55:59;101064.47;;;21.98;56.76
65659;BME280;60181;53.258;6.932;2023-07-02T17:00:03;101063.72;;;21.98;56.71
65659;BME280;60181;53.258;6.932;2023-07-02T17:04:06;101061.22;;;21.98;56.72
65659;BME280;60181;53.258;6.932;2023-07-02T17:08:11;101059.55;;;21.98;56.82
65659;BME280;60181;53.258;6.932;2023-07-02T17:12:15;101058.15;;;21.98;56.85
65659;BME280;60181;53.258;6.932;2023-07-02T17:16:18;101057.31;;;21.97;56.84
65659;BME280;60181;53.258;6.932;2023-07-02T17:20:22;101055.89;;;21.96;56.73
65659;BME280;60181;53.258;6.932;2023-07-02T17:24:28;101054.25;;;21.96;56.78
65659;BME280;60181;53.258;6.932;2023-07-02T17:28:30;101053.33;;;21.95;56.84
65659;BME280;60181;53.258;6.932;2023-07-02T17:32:34;101052.69;;;21.95;56.85
65659;BME280;60181;53.258;6.932;2023-07-02T17:36:38;101051.76;;;21.94;56.88
65659;BME280;60181;53.258;6.932;2023-07-02T17:40:42;101050.05;;;21.93;56.86
65659;BME280;60181;53.258;6.932;2023-07-02T17:44:47;101049.49;;;21.91;56.95
65659;BME280;60181;53.258;6.932;2023-07-02T17:48:50;101049.92;;;21.90;56.97
65659;BME280;60181;53.258;6.932;2023-07-02T17:52:54;101048.69;;;21.88;56.94
65659;BME280;60181;53.258;6.932;2023-07-02T17:57:00;101046.12;;;21.86;57.10
65659;BME280;60181;53.258;6.932;2023-07-02T18:01:02;101043.42;;;21.83;57.35
65659;BME280;60181;53.258;6.932;2023-07-02T18:05:07;101039.83;;;21.79;57.30
65659;BME280;60181;53.258;6.932;2023-07-02T18:09:11;101038.78;;;21.77;57.17
65659;BME280;60181;53.258;6.932;2023-07-02T18:13:14;101038.45;;;21.75;57.18
65659;BME280;60181;53.258;6.932;2023-07-02T18:17:18;101037.66;;;21.73;57.14
65659;BME280;60181;53.258;6.932;2023-07-02T18:21:22;101036.83;;;21.72;57.14
65659;BME280;60181;53.258;6.932;2023-07-02T18:25:26;101035.68;;;21.71;57.20
65659;BME280;60181;53.258;6.932;2023-07-02T18:29:31;101033.26;;;21.71;57.15
65659;BME280;60181;53.258;6.932;2023-07-02T18:33:35;101030.72;;;21.70;57.21
65659;BME280;60181;53.258;6.932;2023-07-02T18:37:38;101026.97;;;21.69;57.18
65659;BME280;60181;53.258;6.932;2023-07-02T18:41:42;101023.81;;;21.68;57.17
65659;BME280;60181;53.258;6.932;2023-07-02T18:45:50;101020.29;;;21.67;57.19
65659;BME280;60181;53.258;6.932;2023-07-02T18:49:50;101017.41;;;21.67;57.24
65659;BME280;60181;53.258;6.932;2023-07-02T18:53:54;101014.50;;;21.66;57.27
65659;BME280;60181;53.258;6.932;2023-07-02T18:57:58;101012.52;;;21.65;57.28
65659;BME280;60181;53.258;6.932;2023-07-02T19:02:03;101010.86;;;21.64;57.31
65659;BME280;60181;53.258;6.932;2023-07-02T19:06:07;101009.97;;;21.63;57.37
65659;BME280;60181;53.258;6.932;2023-07-02T19:10:10;101009.55;;;21.62;57.39
65659;BME280;60181;53.258;6.932;2023-07-02T19:14:14;101010.89;;;21.61;57.45
65659;BME280;60181;53.258;6.932;2023-07-02T19:18:18;101011.47;;;21.59;57.48
65659;BME280;60181;53.258;6.932;2023-07-02T19:22:22;101011.15;;;21.58;57.50
65659;BME280;60181;53.258;6.932;2023-07-02T19:26:26;101011.83;;;21.57;57.52
65659;BME280;60181;53.258;6.932;2023-07-02T19:30:30;101011.03;;;21.56;57.56
65659;BME280;60181;53.258;6.932;2023-07-02T19:34:34;101008.88;;;21.55;57.58
65659;BME280;60181;53.258;6.932;2023-07-02T19:38:38;101005.39;;;21.54;57.63
65659;BME280;60181;53.258;6.932;2023-07-02T19:42:42;101003.50;;;21.53;57.66
65659;BME280;60181;53.258;6.932;2023-07-02T19:46:46;101002.68;;;21.52;57.69
65659;BME280;60181;53.258;6.932;2023-07-02T19:50:57;101000.19;;;21.51;57.76
65659;BME280;60181;53.258;6.932;2023-07-02T19:55:02;100998.54;;;21.50;57.75
65659;BME280;60181;53.258;6.932;2023-07-02T19:58:58;100998.14;;;21.49;57.79
65659;BME280;60181;53.258;6.932;2023-07-02T20:03:02;100997.33;;;21.48;57.81
65659;BME280;60181;53.258;6.932;2023-07-02T20:07:06;100997.08;;;21.47;57.85
65659;BME280;60181;53.258;6.932;2023-07-02T20:11:10;100995.75;;;21.46;57.91
65659;BME280;60181;53.258;6.932;2023-07-02T20:15:14;100993.84;;;21.45;58.07
65659;BME280;60181;53.258;6.932;2023-07-02T20:19:18;100992.41;;;21.47;57.85
65659;BME280;60181;53.258;6.932;2023-07-02T20:23:23;100990.64;;;21.48;57.88
65659;BME280;60181;53.258;6.932;2023-07-02T20:27:26;100988.95;;;21.49;57.80
65659;BME280;60181;53.258;6.932;2023-07-02T20:31:30;100986.94;;;21.50;57.86
65659;BME280;60181;53.258;6.932;2023-07-02T20:35:37;100984.20;;;21.49;57.90
65659;BME280;60181;53.258;6.932;2023-07-02T20:39:39;100980.81;;;21.49;57.94
65659;BME280;60181;53.258;6.932;2023-07-02T20:43:42;100977.40;;;21.48;57.97
65659;BME280;60181;53.258;6.932;2023-07-02T20:47:46;100974.25;;;21.47;58.00
65659;BME280;60181;53.258;6.932;2023-07-02T20:51:50;100971.50;;;21.46;58.02
65659;BME280;60181;53.258;6.932;2023-07-02T20:55:55;100969.84;;;21.45;58.07
65659;BME280;60181;53.258;6.932;2023-07-02T20:59:58;100968.45;;;21.44;58.03
65659;BME280;60181;53.258;6.932;2023-07-02T21:04:02;100966.97;;;21.43;58.04
65659;BME280;60181;53.258;6.932;2023-07-02T21:08:06;100965.48;;;21.42;58.03
65659;BME280;60181;53.258;6.932;2023-07-02T21:12:10;100964.31;;;21.42;58.05
65659;BME280;60181;53.258;6.932;2023-07-02T21:16:14;100963.59;;;21.41;58.07